sensor_id;sensor_type;location;lat;lon;timestamp;P1;durP1;ratioP1;P2;durP2;ratioP2
86591;SDS011;77254;39.564;2.628;2024-03-23T00:53:59;10.30;;;3.90;;
86591;SDS011;77254;39.564;2.628;2024-03-23T00:56:26;8.40;;;3.40;;
86591;SDS011;77254;39.564;2.628;2024-03-23T00:58:52;10.90;;;4.20;;
86591;SDS011;77254;39.564;2.628;2024-03-23T01:01:19;10.80;;;3.90;;
86591;SDS011;77254;39.564;2.628;2024-03-23T01:03:46;12.80;;;3.80;;
86591;SDS011;77254;39.564;2.628;2024-03-23T01:08:39;8.00;;;3.20;;
86591;SDS011;77254;39.564;2.628;2024-03-23T01:11:05;8.90;;;3.20;;
86591;SDS011;77254;39.564;2.628;2024-03-23T01:15:58;11.20;;;3.40;;
86591;SDS011;77254;39.564;2.628;2024-03-23T01:18:25;12.20;;;3.60;;
86591;SDS011;77254;39.564;2.628;2024-03-23T01:20:51;9.20;;;4.00;;
86591;SDS011;77254;39.564;2.628;2024-03-23T01:23:18;9.20;;;3.70;;
86591;SDS011;77254;39.564;2.628;2024-03-23T01:25:43;11.20;;;3.60;;
86591;SDS011;77254;39.564;2.628;2024-03-23T01:28:10;7.10;;;3.20;;
86591;SDS011;77254;39.564;2.628;2024-03-23T01:33:04;6.60;;;3.20;;
86591;SDS011;77254;39.564;2.628;2024-03-23T01:35:31;7.80;;;3.00;;
86591;SDS011;77254;39.564;2.628;2024-03-23T01:37:57;11.50;;;3.40;;
86591;SDS011;77254;39.564;2.628;2024-03-23T01:40:23;9.60;;;3.20;;
86591;SDS011;77254;39.564;2.628;2024-03-23T01:42:56;4.90;;;2.90;;
86591;SDS011;77254;39.564;2.628;2024-03-23T01:45:23;9.00;;;3.30;;
86591;SDS011;77254;39.564;2.628;2024-03-23T01:47:52;8.10;;;3.40;;
86591;SDS011;77254;39.564;2.628;2024-03-23T01:50:21;11.50;;;3.70;;
86591;SDS011;77254;39.564;2.628;2024-03-23T01:53:08;11.20;;;4.70;;
86591;SDS011;77254;39.564;2.628;2024-03-23T01:55:35;12.60;;;4.40;;
86591;SDS011;77254;39.564;2.628;2024-03-23T01:58:01;10.30;;;4.00;;
86591;SDS011;77254;39.564;2.628;2024-03-23T02:00:29;7.60;;;3.30;;
86591;SDS011;77254;39.564;2.628;2024-03-23T02:02:55;6.60;;;3.00;;
86591;SDS011;77254;39.564;2.628;2024-03-23T02:05:21;9.30;;;3.40;;
86591;SDS011;77254;39.564;2.628;2024-03-23T02:07:48;9.40;;;3.70;;
86591;SDS011;77254;39.564;2.628;2024-03-23T02:10:17;8.70;;;3.60;;
86591;SDS011;77254;39.564;2.628;2024-03-23T02:12:44;8.00;;;3.60;;
86591;SDS011;77254;39.564;2.628;2024-03-23T02:15:11;9.50;;;3.80;;
86591;SDS011;77254;39.564;2.628;2024-03-23T02:17:40;12.80;;;4.70;;
86591;SDS011;77254;39.564;2.628;2024-03-23T02:20:07;13.90;;;3.40;;
86591;SDS011;77254;39.564;2.628;2024-03-23T02:22:36;9.10;;;3.40;;
86591;SDS011;77254;39.564;2.628;2024-03-23T02:25:06;9.80;;;3.50;;
86591;SDS011;77254;39.564;2.628;2024-03-23T02:27:33;13.80;;;4.00;;
86591;SDS011;77254;39.564;2.628;2024-03-23T02:30:01;9.00;;;3.80;;
86591;SDS011;77254;39.564;2.628;2024-03-23T02:32:28;14.50;;;3.80;;
86591;SDS011;77254;39.564;2.628;2024-03-23T02:34:54;7.50;;;3.20;;
86591;SDS011;77254;39.564;2.628;2024-03-23T02:37:22;12.00;;;3.60;;
86591;SDS011;77254;39.564;2.628;2024-03-23T02:39:49;11.80;;;4.50;;
86591;SDS011;77254;39.564;2.628;2024-03-23T02:42:15;11.20;;;3.60;;
86591;SDS011;77254;39.564;2.628;2024-03-23T02:44:44;10.00;;;4.40;;
86591;SDS011;77254;39.564;2.628;2024-03-23T02:47:10;11.20;;;3.50;;
86591;SDS011;77254;39.564;2.628;2024-03-23T02:49:38;6.30;;;3.60;;
86591;SDS011;77254;39.564;2.628;2024-03-23T02:52:05;10.10;;;4.20;;
86591;SDS011;77254;39.564;2.628;2024-03-23T02:56:58;8.00;;;3.70;;
86591;SDS011;77254;39.564;2.628;2024-03-23T02:59:25;9.30;;;4.80;;
86591;SDS011;77254;39.564;2.628;2024-03-23T03:01:51;10.40;;;5.00;;
86591;SDS011;77254;39.564;2.628;2024-03-23T03:04:18;12.90;;;5.30;;
86591;SDS011;77254;39.564;2.628;2024-03-23T03:06:48;11.20;;;5.20;;
86591;SDS011;77254;39.564;2.628;2024-03-23T03:09:34;11.90;;;4.50;;
86591;SDS011;77254;39.564;2.628;2024-03-23T03:12:04;9.10;;;4.30;;
86591;SDS011;77254;39.564;2.628;2024-03-23T03:14:31;11.20;;;5.00;;
86591;SDS011;77254;39.564;2.628;2024-03-23T03:16:58;10.70;;;4.00;;
86591;SDS011;77254;39.564;2.628;2024-03-23T03:19:24;15.00;;;4.20;;
86591;SDS011;77254;39.564;2.628;2024-03-23T03:21:50;8.20;;;4.20;;
86591;SDS011;77254;39.564;2.628;2024-03-23T03:24:18;12.40;;;3.80;;
86591;SDS011;77254;39.564;2.628;2024-03-23T03:26:45;10.60;;;4.40;;
86591;SDS011;77254;39.564;2.628;2024-03-23T03:31:41;8.00;;;3.50;;
86591;SDS011;77254;39.564;2.628;2024-03-23T03:34:27;10.70;;;4.40;;
86591;SDS011;77254;39.564;2.628;2024-03-23T03:36:54;10.70;;;3.80;;
86591;SDS011;77254;39.564;2.628;2024-03-23T03:39:21;8.30;;;3.80;;
86591;SDS011;77254;39.564;2.628;2024-03-23T03:41:48;11.20;;;4.20;;
86591;SDS011;77254;39.564;2.628;2024-03-23T03:44:16;13.20;;;4.60;;
86591;SDS011;77254;39.564;2.628;2024-03-23T03:46:43;8.20;;;3.80;;
86591;SDS011;77254;39.564;2.628;2024-03-23T03:49:10;13.20;;;5.10;;
86591;SDS011;77254;39.564;2.628;2024-03-23T03:51:37;7.30;;;3.90;;
86591;SDS011;77254;39.564;2.628;2024-03-23T03:54:05;8.90;;;4.10;;
86591;SDS011;77254;39.564;2.628;2024-03-23T03:56:31;6.00;;;3.20;;
86591;SDS011;77254;39.564;2.628;2024-03-23T03:58:58;8.00;;;3.10;;
86591;SDS011;77254;39.564;2.628;2024-03-23T04:01:25;8.60;;;3.70;;
86591;SDS011;77254;39.564;2.628;2024-03-23T04:03:53;8.50;;;4.00;;
86591;SDS011;77254;39.564;2.628;2024-03-23T04:08:45;10.90;;;4.20;;
86591;SDS011;77254;39.564;2.628;2024-03-23T04:11:12;6.60;;;3.40;;
86591;SDS011;77254;39.564;2.628;2024-03-23T04:13:38;9.10;;;3.80;;
86591;SDS011;77254;39.564;2.628;2024-03-23T04:16:06;10.50;;;3.70;;
86591;SDS011;77254;39.564;2.628;2024-03-23T04:18:35;8.70;;;4.20;;
86591;SDS011;77254;39.564;2.628;2024-03-23T04:21:01;8.20;;;3.60;;
86591;SDS011;77254;39.564;2.628;2024-03-23T04:23:28;9.60;;;3.30;;
86591;SDS011;77254;39.564;2.628;2024-03-23T04:25:54;9.40;;;3.50;;
86591;SDS011;77254;39.564;2.628;2024-03-23T04:28:20;8.00;;;4.30;;
86591;SDS011;77254;39.564;2.628;2024-03-23T04:30:47;11.90;;;4.20;;
86591;SDS011;77254;39.564;2.628;2024-03-23T04:33:14;11.50;;;3.70;;
86591;SDS011;77254;39.564;2.628;2024-03-23T04:35:40;8.90;;;3.40;;
86591;SDS011;77254;39.564;2.628;2024-03-23T04:38:07;8.00;;;3.50;;
86591;SDS011;77254;39.564;2.628;2024-03-23T04:43:00;9.20;;;3.80;;
86591;SDS011;77254;39.564;2.628;2024-03-23T04:47:52;9.00;;;3.40;;
86591;SDS011;77254;39.564;2.628;2024-03-23T04:50:19;10.80;;;3.30;;
86591;SDS011;77254;39.564;2.628;2024-03-23T04:52:46;8.60;;;3.30;;
86591;SDS011;77254;39.564;2.628;2024-03-23T04:55:13;7.80;;;3.60;;
86591;SDS011;77254;39.564;2.628;2024-03-23T04:57:41;7.40;;;3.40;;
86591;SDS011;77254;39.564;2.628;2024-03-23T05:00:07;9.90;;;3.70;;
86591;SDS011;77254;39.564;2.628;2024-03-23T05:02:43;8.40;;;3.90;;
86591;SDS011;77254;39.564;2.628;2024-03-23T05:07:35;8.70;;;3.60;;
86591;SDS011;77254;39.564;2.628;2024-03-23T05:10:02;10.60;;;3.60;;
86591;SDS011;77254;39.564;2.628;2024-03-23T05:12:28;7.50;;;2.80;;
86591;SDS011;77254;39.564;2.628;2024-03-23T05:14:55;9.40;;;3.80;;
86591;SDS011;77254;39.564;2.628;2024-03-23T05:17:22;8.00;;;3.50;;
86591;SDS011;77254;39.564;2.628;2024-03-23T05:19:48;6.60;;;3.60;;
86591;SDS011;77254;39.564;2.628;2024-03-23T05:24:41;8.70;;;3.60;;
86591;SDS011;77254;39.564;2.628;2024-03-23T05:27:08;9.30;;;4.10;;
86591;SDS011;77254;39.564;2.628;2024-03-23T05:29:34;10.40;;;3.30;;
86591;SDS011;77254;39.564;2.628;2024-03-23T05:32:01;7.90;;;3.40;;
86591;SDS011;77254;39.564;2.628;2024-03-23T05:34:27;10.10;;;3.60;;
86591;SDS011;77254;39.564;2.628;2024-03-23T05:36:54;8.20;;;3.00;;
86591;SDS011;77254;39.564;2.628;2024-03-23T05:39:20;10.90;;;3.90;;
86591;SDS011;77254;39.564;2.628;2024-03-23T05:41:47;7.60;;;4.00;;
86591;SDS011;77254;39.564;2.628;2024-03-23T05:44:15;7.80;;;3.60;;
86591;SDS011;77254;39.564;2.628;2024-03-23T05:46:41;10.70;;;4.50;;
86591;SDS011;77254;39.564;2.628;2024-03-23T05:49:14;10.60;;;3.60;;
86591;SDS011;77254;39.564;2.628;2024-03-23T05:51:42;13.70;;;3.90;;
86591;SDS011;77254;39.564;2.628;2024-03-23T05:54:08;8.00;;;3.60;;
86591;SDS011;77254;39.564;2.628;2024-03-23T05:56:36;8.80;;;4.00;;
86591;SDS011;77254;39.564;2.628;2024-03-23T05:59:02;10.10;;;4.10;;
86591;SDS011;77254;39.564;2.628;2024-03-23T06:01:29;8.70;;;4.30;;
86591;SDS011;77254;39.564;2.628;2024-03-23T06:03:58;10.10;;;3.70;;
86591;SDS011;77254;39.564;2.628;2024-03-23T06:06:30;12.90;;;4.00;;
86591;SDS011;77254;39.564;2.628;2024-03-23T06:16:13;7.40;;;3.30;;
86591;SDS011;77254;39.564;2.628;2024-03-23T06:18:41;9.40;;;3.30;;
86591;SDS011;77254;39.564;2.628;2024-03-23T06:21:13;12.20;;;4.00;;
86591;SDS011;77254;39.564;2.628;2024-03-23T06:23:40;11.60;;;3.90;;
86591;SDS011;77254;39.564;2.628;2024-03-23T06:26:06;9.30;;;3.60;;
86591;SDS011;77254;39.564;2.628;2024-03-23T06:28:33;7.00;;;3.30;;
86591;SDS011;77254;39.564;2.628;2024-03-23T06:31:01;7.60;;;3.80;;
86591;SDS011;77254;39.564;2.628;2024-03-23T06:33:28;11.60;;;4.00;;
86591;SDS011;77254;39.564;2.628;2024-03-23T06:35:56;9.80;;;4.50;;
86591;SDS011;77254;39.564;2.628;2024-03-23T06:38:23;11.20;;;3.20;;
86591;SDS011;77254;39.564;2.628;2024-03-23T06:40:51;9.70;;;3.80;;
86591;SDS011;77254;39.564;2.628;2024-03-23T06:43:18;12.50;;;3.40;;
86591;SDS011;77254;39.564;2.628;2024-03-23T06:45:52;11.00;;;4.20;;
86591;SDS011;77254;39.564;2.628;2024-03-23T06:48:18;9.30;;;3.60;;
86591;SDS011;77254;39.564;2.628;2024-03-23T06:50:46;14.20;;;4.40;;
86591;SDS011;77254;39.564;2.628;2024-03-23T06:53:13;9.30;;;3.90;;
86591;SDS011;77254;39.564;2.628;2024-03-23T06:55:42;9.30;;;3.60;;
86591;SDS011;77254;39.564;2.628;2024-03-23T06:58:17;11.60;;;3.50;;
86591;SDS011;77254;39.564;2.628;2024-03-23T07:00:44;9.70;;;3.90;;
86591;SDS011;77254;39.564;2.628;2024-03-23T07:03:11;12.00;;;4.20;;
86591;SDS011;77254;39.564;2.628;2024-03-23T07:05:37;8.30;;;3.30;;
86591;SDS011;77254;39.564;2.628;2024-03-23T07:08:04;11.90;;;4.10;;
86591;SDS011;77254;39.564;2.628;2024-03-23T07:10:32;9.00;;;4.20;;
86591;SDS011;77254;39.564;2.628;2024-03-23T07:12:59;8.10;;;3.60;;
86591;SDS011;77254;39.564;2.628;2024-03-23T07:15:26;11.60;;;3.50;;
86591;SDS011;77254;39.564;2.628;2024-03-23T07:17:53;12.80;;;4.00;;
86591;SDS011;77254;39.564;2.628;2024-03-23T07:20:20;9.10;;;3.80;;
86591;SDS011;77254;39.564;2.628;2024-03-23T07:22:46;12.00;;;4.80;;
86591;SDS011;77254;39.564;2.628;2024-03-23T07:25:12;12.80;;;4.00;;
86591;SDS011;77254;39.564;2.628;2024-03-23T07:27:39;10.10;;;4.30;;
86591;SDS011;77254;39.564;2.628;2024-03-23T07:30:07;11.20;;;5.00;;
86591;SDS011;77254;39.564;2.628;2024-03-23T07:32:36;23.50;;;5.80;;
86591;SDS011;77254;39.564;2.628;2024-03-23T07:35:04;16.20;;;5.20;;
86591;SDS011;77254;39.564;2.628;2024-03-23T07:37:32;12.40;;;4.60;;
86591;SDS011;77254;39.564;2.628;2024-03-23T07:39:58;13.80;;;5.30;;
86591;SDS011;77254;39.564;2.628;2024-03-23T07:42:24;11.20;;;4.90;;
86591;SDS011;77254;39.564;2.628;2024-03-23T07:44:52;12.30;;;5.80;;
86591;SDS011;77254;39.564;2.628;2024-03-23T07:47:22;13.20;;;4.50;;
86591;SDS011;77254;39.564;2.628;2024-03-23T07:49:49;18.20;;;4.80;;
86591;SDS011;77254;39.564;2.628;2024-03-23T07:52:16;18.70;;;4.50;;
86591;SDS011;77254;39.564;2.628;2024-03-23T07:54:43;18.80;;;5.20;;
86591;SDS011;77254;39.564;2.628;2024-03-23T07:57:09;18.40;;;5.10;;
86591;SDS011;77254;39.564;2.628;2024-03-23T07:59:36;20.00;;;6.10;;
86591;SDS011;77254;39.564;2.628;2024-03-23T08:02:04;13.70;;;4.80;;
86591;SDS011;77254;39.564;2.628;2024-03-23T08:04:32;12.50;;;5.10;;
86591;SDS011;77254;39.564;2.628;2024-03-23T08:06:59;12.00;;;5.70;;
86591;SDS011;77254;39.564;2.628;2024-03-23T08:09:27;21.60;;;6.40;;
86591;SDS011;77254;39.564;2.628;2024-03-23T08:11:55;14.40;;;5.30;;
86591;SDS011;77254;39.564;2.628;2024-03-23T08:14:22;15.80;;;5.00;;
86591;SDS011;77254;39.564;2.628;2024-03-23T08:16:51;11.00;;;5.10;;
86591;SDS011;77254;39.564;2.628;2024-03-23T08:19:19;14.10;;;4.80;;
86591;SDS011;77254;39.564;2.628;2024-03-23T08:21:46;18.30;;;5.30;;
86591;SDS011;77254;39.564;2.628;2024-03-23T08:24:13;11.70;;;5.80;;
86591;SDS011;77254;39.564;2.628;2024-03-23T08:26:41;19.50;;;5.50;;
86591;SDS011;77254;39.564;2.628;2024-03-23T08:29:09;16.60;;;5.90;;
86591;SDS011;77254;39.564;2.628;2024-03-23T08:31:36;18.30;;;5.30;;
86591;SDS011;77254;39.564;2.628;2024-03-23T08:34:03;15.10;;;5.30;;
86591;SDS011;77254;39.564;2.628;2024-03-23T08:36:30;16.90;;;5.70;;
86591;SDS011;77254;39.564;2.628;2024-03-23T08:38:57;19.30;;;6.40;;
86591;SDS011;77254;39.564;2.628;2024-03-23T08:41:24;15.70;;;5.70;;
86591;SDS011;77254;39.564;2.628;2024-03-23T08:43:52;13.20;;;5.30;;
86591;SDS011;77254;39.564;2.628;2024-03-23T08:46:20;16.00;;;5.60;;
86591;SDS011;77254;39.564;2.628;2024-03-23T08:48:47;22.80;;;6.20;;
86591;SDS011;77254;39.564;2.628;2024-03-23T08:51:16;18.10;;;6.40;;
86591;SDS011;77254;39.564;2.628;2024-03-23T08:53:43;17.50;;;5.50;;
86591;SDS011;77254;39.564;2.628;2024-03-23T08:56:11;21.00;;;6.00;;
86591;SDS011;77254;39.564;2.628;2024-03-23T08:58:38;32.00;;;6.00;;
86591;SDS011;77254;39.564;2.628;2024-03-23T09:01:07;20.70;;;5.60;;
86591;SDS011;77254;39.564;2.628;2024-03-23T09:03:34;21.70;;;5.50;;
86591;SDS011;77254;39.564;2.628;2024-03-23T09:06:11;14.10;;;4.80;;
86591;SDS011;77254;39.564;2.628;2024-03-23T09:08:57;14.90;;;5.20;;
86591;SDS011;77254;39.564;2.628;2024-03-23T09:11:23;18.80;;;5.90;;
86591;SDS011;77254;39.564;2.628;2024-03-23T09:13:50;13.80;;;4.60;;
86591;SDS011;77254;39.564;2.628;2024-03-23T09:16:18;18.60;;;5.60;;
86591;SDS011;77254;39.564;2.628;2024-03-23T09:18:45;15.30;;;4.70;;
86591;SDS011;77254;39.564;2.628;2024-03-23T09:21:13;20.80;;;5.60;;
86591;SDS011;77254;39.564;2.628;2024-03-23T09:23:42;16.00;;;5.50;;
86591;SDS011;77254;39.564;2.628;2024-03-23T09:26:09;12.00;;;4.40;;
86591;SDS011;77254;39.564;2.628;2024-03-23T09:28:37;10.10;;;4.20;;
86591;SDS011;77254;39.564;2.628;2024-03-23T09:31:06;18.50;;;4.90;;
86591;SDS011;77254;39.564;2.628;2024-03-23T09:33:33;9.20;;;3.80;;
86591;SDS011;77254;39.564;2.628;2024-03-23T09:36:04;10.70;;;3.70;;
86591;SDS011;77254;39.564;2.628;2024-03-23T09:38:32;9.80;;;3.60;;
86591;SDS011;77254;39.564;2.628;2024-03-23T09:41:00;12.90;;;3.90;;
86591;SDS011;77254;39.564;2.628;2024-03-23T09:43:28;7.00;;;2.80;;
86591;SDS011;77254;39.564;2.628;2024-03-23T09:45:55;14.20;;;3.90;;
86591;SDS011;77254;39.564;2.628;2024-03-23T09:48:22;19.50;;;3.90;;
86591;SDS011;77254;39.564;2.628;2024-03-23T09:50:49;9.00;;;3.10;;
86591;SDS011;77254;39.564;2.628;2024-03-23T09:53:16;7.50;;;2.80;;
86591;SDS011;77254;39.564;2.628;2024-03-23T09:55:43;13.10;;;3.50;;
86591;SDS011;77254;39.564;2.628;2024-03-23T09:58:16;12.80;;;3.30;;
86591;SDS011;77254;39.564;2.628;2024-03-23T10:00:44;9.60;;;2.90;;
86591;SDS011;77254;39.564;2.628;2024-03-23T10:03:11;6.20;;;2.30;;
86591;SDS011;77254;39.564;2.628;2024-03-23T10:05:38;11.60;;;2.80;;
86591;SDS011;77254;39.564;2.628;2024-03-23T10:10:41;9.30;;;2.50;;
86591;SDS011;77254;39.564;2.628;2024-03-23T10:13:08;12.80;;;2.30;;
86591;SDS011;77254;39.564;2.628;2024-03-23T10:15:36;8.30;;;2.50;;
86591;SDS011;77254;39.564;2.628;2024-03-23T10:18:22;5.10;;;2.20;;
86591;SDS011;77254;39.564;2.628;2024-03-23T10:21:09;14.10;;;2.40;;
86591;SDS011;77254;39.564;2.628;2024-03-23T10:23:38;11.70;;;2.40;;
86591;SDS011;77254;39.564;2.628;2024-03-23T10:31:24;7.90;;;2.10;;
86591;SDS011;77254;39.564;2.628;2024-03-23T10:33:50;7.80;;;2.30;;
86591;SDS011;77254;39.564;2.628;2024-03-23T10:36:21;12.90;;;2.40;;
86591;SDS011;77254;39.564;2.628;2024-03-23T10:38:49;15.40;;;2.60;;
86591;SDS011;77254;39.564;2.628;2024-03-23T10:41:16;6.70;;;2.50;;
86591;SDS011;77254;39.564;2.628;2024-03-23T10:43:47;8.30;;;2.50;;
86591;SDS011;77254;39.564;2.628;2024-03-23T10:46:15;6.80;;;2.30;;
86591;SDS011;77254;39.564;2.628;2024-03-23T10:48:40;5.70;;;1.80;;
86591;SDS011;77254;39.564;2.628;2024-03-23T10:51:09;7.00;;;2.90;;
86591;SDS011;77254;39.564;2.628;2024-03-23T10:53:37;8.60;;;2.40;;
86591;SDS011;77254;39.564;2.628;2024-03-23T10:56:04;7.20;;;2.30;;
86591;SDS011;77254;39.564;2.628;2024-03-23T10:58:38;11.70;;;2.00;;
86591;SDS011;77254;39.564;2.628;2024-03-23T11:01:05;9.40;;;2.30;;
86591;SDS011;77254;39.564;2.628;2024-03-23T11:03:34;6.80;;;2.20;;
86591;SDS011;77254;39.564;2.628;2024-03-23T11:06:02;6.80;;;2.00;;
86591;SDS011;77254;39.564;2.628;2024-03-23T11:13:42;9.00;;;2.20;;
86591;SDS011;77254;39.564;2.628;2024-03-23T11:16:13;7.30;;;2.10;;
86591;SDS011;77254;39.564;2.628;2024-03-23T11:21:07;16.60;;;2.60;;
86591;SDS011;77254;39.564;2.628;2024-03-23T11:23:35;11.40;;;2.40;;
86591;SDS011;77254;39.564;2.628;2024-03-23T11:26:02;11.50;;;2.80;;
86591;SDS011;77254;39.564;2.628;2024-03-23T11:28:32;6.90;;;2.00;;
86591;SDS011;77254;39.564;2.628;2024-03-23T11:30:59;5.60;;;1.90;;
86591;SDS011;77254;39.564;2.628;2024-03-23T11:33:26;8.90;;;2.30;;
86591;SDS011;77254;39.564;2.628;2024-03-23T11:35:52;5.00;;;2.00;;
86591;SDS011;77254;39.564;2.628;2024-03-23T11:38:19;7.90;;;2.30;;
86591;SDS011;77254;39.564;2.628;2024-03-23T11:40:49;12.10;;;2.70;;
86591;SDS011;77254;39.564;2.628;2024-03-23T11:43:33;10.10;;;2.10;;
86591;SDS011;77254;39.564;2.628;2024-03-23T11:46:00;11.20;;;2.10;;
86591;SDS011;77254;39.564;2.628;2024-03-23T11:48:29;8.20;;;2.10;;
86591;SDS011;77254;39.564;2.628;2024-03-23T11:50:57;7.60;;;2.60;;
86591;SDS011;77254;39.564;2.628;2024-03-23T11:53:24;7.10;;;2.30;;
86591;SDS011;77254;39.564;2.628;2024-03-23T11:55:56;8.90;;;2.10;;
86591;SDS011;77254;39.564;2.628;2024-03-23T11:58:24;7.80;;;2.10;;
86591;SDS011;77254;39.564;2.628;2024-03-23T12:00:58;9.30;;;2.40;;
86591;SDS011;77254;39.564;2.628;2024-03-23T12:03:26;5.60;;;1.90;;
86591;SDS011;77254;39.564;2.628;2024-03-23T12:05:54;8.30;;;2.40;;
86591;SDS011;77254;39.564;2.628;2024-03-23T12:08:23;6.30;;;2.70;;
86591;SDS011;77254;39.564;2.628;2024-03-23T12:10:53;6.50;;;2.20;;
86591;SDS011;77254;39.564;2.628;2024-03-23T12:13:30;7.30;;;2.30;;
86591;SDS011;77254;39.564;2.628;2024-03-23T12:16:20;6.70;;;2.90;;
86591;SDS011;77254;39.564;2.628;2024-03-23T12:18:46;7.20;;;2.40;;
86591;SDS011;77254;39.564;2.628;2024-03-23T12:21:12;7.90;;;2.30;;
86591;SDS011;77254;39.564;2.628;2024-03-23T12:23:40;9.50;;;2.10;;
86591;SDS011;77254;39.564;2.628;2024-03-23T12:26:12;6.60;;;2.40;;
86591;SDS011;77254;39.564;2.628;2024-03-23T12:28:39;6.50;;;2.20;;
86591;SDS011;77254;39.564;2.628;2024-03-23T12:31:07;7.50;;;2.40;;
86591;SDS011;77254;39.564;2.628;2024-03-23T12:33:37;10.30;;;2.30;;
86591;SDS011;77254;39.564;2.628;2024-03-23T12:36:03;5.20;;;1.90;;
86591;SDS011;77254;39.564;2.628;2024-03-23T12:38:31;9.80;;;2.40;;
86591;SDS011;77254;39.564;2.628;2024-03-23T12:40:59;7.70;;;2.20;;
86591;SDS011;77254;39.564;2.628;2024-03-23T12:43:26;10.00;;;2.10;;
86591;SDS011;77254;39.564;2.628;2024-03-23T12:45:53;7.00;;;1.70;;
86591;SDS011;77254;39.564;2.628;2024-03-23T12:48:21;4.80;;;1.80;;
86591;SDS011;77254;39.564;2.628;2024-03-23T12:50:48;8.00;;;2.10;;
86591;SDS011;77254;39.564;2.628;2024-03-23T12:53:14;7.10;;;2.50;;
86591;SDS011;77254;39.564;2.628;2024-03-23T12:55:42;11.00;;;2.60;;
86591;SDS011;77254;39.564;2.628;2024-03-23T12:58:09;6.90;;;2.10;;
86591;SDS011;77254;39.564;2.628;2024-03-23T13:00:36;7.10;;;2.20;;
86591;SDS011;77254;39.564;2.628;2024-03-23T13:03:04;4.90;;;1.90;;
86591;SDS011;77254;39.564;2.628;2024-03-23T13:05:30;5.50;;;2.20;;
86591;SDS011;77254;39.564;2.628;2024-03-23T13:07:58;6.90;;;2.10;;
86591;SDS011;77254;39.564;2.628;2024-03-23T13:10:26;5.60;;;2.10;;
86591;SDS011;77254;39.564;2.628;2024-03-23T13:12:53;8.00;;;2.60;;
86591;SDS011;77254;39.564;2.628;2024-03-23T13:15:20;6.30;;;2.50;;
86591;SDS011;77254;39.564;2.628;2024-03-23T13:17:47;7.60;;;2.60;;
86591;SDS011;77254;39.564;2.628;2024-03-23T13:20:15;6.70;;;2.00;;
86591;SDS011;77254;39.564;2.628;2024-03-23T13:22:42;5.20;;;2.20;;
86591;SDS011;77254;39.564;2.628;2024-03-23T13:25:09;6.40;;;2.20;;
86591;SDS011;77254;39.564;2.628;2024-03-23T13:27:36;6.20;;;2.40;;
86591;SDS011;77254;39.564;2.628;2024-03-23T13:30:04;7.80;;;2.10;;
86591;SDS011;77254;39.564;2.628;2024-03-23T13:32:33;5.60;;;2.20;;
86591;SDS011;77254;39.564;2.628;2024-03-23T13:35:00;8.90;;;2.30;;
86591;SDS011;77254;39.564;2.628;2024-03-23T13:37:27;5.70;;;2.20;;
86591;SDS011;77254;39.564;2.628;2024-03-23T13:39:55;5.20;;;2.10;;
86591;SDS011;77254;39.564;2.628;2024-03-23T13:42:22;6.10;;;2.20;;
86591;SDS011;77254;39.564;2.628;2024-03-23T13:44:51;5.20;;;2.20;;
86591;SDS011;77254;39.564;2.628;2024-03-23T13:47:18;6.50;;;1.90;;
86591;SDS011;77254;39.564;2.628;2024-03-23T13:49:45;5.20;;;1.90;;
86591;SDS011;77254;39.564;2.628;2024-03-23T13:52:11;5.90;;;2.00;;
86591;SDS011;77254;39.564;2.628;2024-03-23T13:54:38;8.80;;;1.90;;
86591;SDS011;77254;39.564;2.628;2024-03-23T13:57:05;7.00;;;2.10;;
86591;SDS011;77254;39.564;2.628;2024-03-23T13:59:32;4.70;;;1.90;;
86591;SDS011;77254;39.564;2.628;2024-03-23T14:01:59;6.30;;;2.20;;
86591;SDS011;77254;39.564;2.628;2024-03-23T14:04:26;6.90;;;1.90;;
86591;SDS011;77254;39.564;2.628;2024-03-23T14:06:53;5.30;;;2.10;;
86591;SDS011;77254;39.564;2.628;2024-03-23T14:09:20;6.00;;;2.40;;
86591;SDS011;77254;39.564;2.628;2024-03-23T14:11:49;6.60;;;2.40;;
86591;SDS011;77254;39.564;2.628;2024-03-23T14:14:17;5.30;;;2.00;;
86591;SDS011;77254;39.564;2.628;2024-03-23T14:16:47;6.20;;;2.10;;
86591;SDS011;77254;39.564;2.628;2024-03-23T14:19:16;7.00;;;2.30;;
86591;SDS011;77254;39.564;2.628;2024-03-23T14:21:45;5.50;;;2.00;;
86591;SDS011;77254;39.564;2.628;2024-03-23T14:24:12;7.30;;;1.90;;
86591;SDS011;77254;39.564;2.628;2024-03-23T14:26:42;8.20;;;2.10;;
86591;SDS011;77254;39.564;2.628;2024-03-23T14:29:09;7.00;;;2.10;;
86591;SDS011;77254;39.564;2.628;2024-03-23T14:31:36;6.90;;;2.30;;
86591;SDS011;77254;39.564;2.628;2024-03-23T14:34:03;6.20;;;2.10;;
86591;SDS011;77254;39.564;2.628;2024-03-23T14:36:30;9.50;;;2.10;;
86591;SDS011;77254;39.564;2.628;2024-03-23T14:38:57;7.70;;;2.10;;
86591;SDS011;77254;39.564;2.628;2024-03-23T14:41:25;8.20;;;2.50;;
86591;SDS011;77254;39.564;2.628;2024-03-23T14:43:52;13.10;;;2.50;;
86591;SDS011;77254;39.564;2.628;2024-03-23T14:46:19;6.20;;;1.90;;
86591;SDS011;77254;39.564;2.628;2024-03-23T14:48:46;9.00;;;2.30;;
86591;SDS011;77254;39.564;2.628;2024-03-23T14:51:14;7.80;;;2.20;;
86591;SDS011;77254;39.564;2.628;2024-03-23T14:53:45;7.40;;;2.00;;
86591;SDS011;77254;39.564;2.628;2024-03-23T14:56:11;6.70;;;2.30;;
86591;SDS011;77254;39.564;2.628;2024-03-23T14:58:40;7.40;;;2.30;;
86591;SDS011;77254;39.564;2.628;2024-03-23T15:01:08;4.90;;;2.30;;
86591;SDS011;77254;39.564;2.628;2024-03-23T15:03:35;7.90;;;2.30;;
86591;SDS011;77254;39.564;2.628;2024-03-23T15:06:02;7.70;;;1.90;;
86591;SDS011;77254;39.564;2.628;2024-03-23T15:08:28;10.00;;;2.00;;
86591;SDS011;77254;39.564;2.628;2024-03-23T15:10:58;8.40;;;1.70;;
86591;SDS011;77254;39.564;2.628;2024-03-23T15:13:25;8.30;;;2.20;;
86591;SDS011;77254;39.564;2.628;2024-03-23T15:15:52;6.00;;;1.70;;
86591;SDS011;77254;39.564;2.628;2024-03-23T15:18:19;8.10;;;2.30;;
86591;SDS011;77254;39.564;2.628;2024-03-23T15:20:52;9.20;;;1.80;;
86591;SDS011;77254;39.564;2.628;2024-03-23T15:23:19;8.90;;;2.30;;
86591;SDS011;77254;39.564;2.628;2024-03-23T15:26:00;8.30;;;2.20;;
86591;SDS011;77254;39.564;2.628;2024-03-23T15:28:27;9.00;;;2.00;;
86591;SDS011;77254;39.564;2.628;2024-03-23T15:31:04;11.60;;;2.50;;
86591;SDS011;77254;39.564;2.628;2024-03-23T15:33:31;5.60;;;1.70;;
86591;SDS011;77254;39.564;2.628;2024-03-23T15:36:01;7.00;;;1.90;;
86591;SDS011;77254;39.564;2.628;2024-03-23T15:38:48;6.90;;;2.00;;
86591;SDS011;77254;39.564;2.628;2024-03-23T15:41:15;7.20;;;1.70;;
86591;SDS011;77254;39.564;2.628;2024-03-23T15:43:43;6.90;;;1.50;;
86591;SDS011;77254;39.564;2.628;2024-03-23T15:46:09;5.10;;;1.70;;
86591;SDS011;77254;39.564;2.628;2024-03-23T15:48:37;3.20;;;1.40;;
86591;SDS011;77254;39.564;2.628;2024-03-23T15:51:05;4.40;;;1.20;;
86591;SDS011;77254;39.564;2.628;2024-03-23T15:53:32;4.80;;;1.70;;
86591;SDS011;77254;39.564;2.628;2024-03-23T15:56:00;5.40;;;1.40;;
86591;SDS011;77254;39.564;2.628;2024-03-23T15:58:28;3.00;;;1.30;;
86591;SDS011;77254;39.564;2.628;2024-03-23T16:00:56;6.00;;;1.10;;
86591;SDS011;77254;39.564;2.628;2024-03-23T16:03:24;4.90;;;1.20;;
86591;SDS011;77254;39.564;2.628;2024-03-23T16:05:54;4.80;;;1.30;;
86591;SDS011;77254;39.564;2.628;2024-03-23T16:08:22;4.30;;;1.00;;
86591;SDS011;77254;39.564;2.628;2024-03-23T16:10:50;5.50;;;1.20;;
86591;SDS011;77254;39.564;2.628;2024-03-23T16:13:18;4.90;;;1.30;;
86591;SDS011;77254;39.564;2.628;2024-03-23T16:15:53;3.60;;;1.10;;
86591;SDS011;77254;39.564;2.628;2024-03-23T16:18:21;4.30;;;1.00;;
86591;SDS011;77254;39.564;2.628;2024-03-23T16:20:54;5.10;;;1.30;;
86591;SDS011;77254;39.564;2.628;2024-03-23T16:23:23;6.50;;;1.70;;
86591;SDS011;77254;39.564;2.628;2024-03-23T16:25:51;3.90;;;1.30;;
86591;SDS011;77254;39.564;2.628;2024-03-23T16:28:26;5.90;;;1.20;;